< < Back
Terminal Aerodrome Forecast


Current Version              Previous Versions:   1  2  3  4  5  6  7  8  9  

Terminal Aerodrome Forecast

774
FTUS42 KTAE 312300
TAFABY
TAF
KABY 312339Z 0100/0124 VRB04KT P6SM SCT250
     FM012000 36005KT P6SM VCTS SCT060CB SCT250=

Latest METAR

534
SAUS70 KWBC 011200 RRX
MTRABY
METAR KABY 011153Z 03005KT 7SM OVC006 23/22 A3001 RMK AO2 SLP159
T02330222 10239 20228 53007


USA.gov is the U.S. government's official web portal to all federal, state and local government web resources and services.